createdAt,value
2023-02-27T00:02:34.661Z,103107.81
2023-02-27T00:12:56.118Z,103116.25
2023-02-27T00:23:17.541Z,103117.59
2023-02-27T00:33:38.910Z,103113.81
2023-02-27T00:44:00.294Z,103110.22
2023-02-27T00:54:21.673Z,103110.94
2023-02-27T01:04:43.069Z,103111.69
2023-02-27T01:15:05.792Z,103108.19
2023-02-27T01:25:27.241Z,103113.13
2023-02-27T01:35:48.682Z,103113.00
2023-02-27T01:46:10.084Z,103112.69
2023-02-27T01:56:32.026Z,103110.69
2023-02-27T02:07:16.695Z,103109.38
2023-02-27T02:17:40.224Z,103123.88
2023-02-27T02:28:20.426Z,103120.25
2023-02-27T02:38:50.790Z,103117.25
2023-02-27T02:49:22.937Z,103120.47
2023-02-27T02:59:55.338Z,103116.91
2023-02-27T03:10:16.805Z,103115.19
2023-02-27T03:20:41.222Z,103122.78
2023-02-27T03:31:22.553Z,103115.94
2023-02-27T03:41:52.274Z,103118.78
2023-02-27T03:52:13.654Z,103118.56
2023-02-27T04:02:36.351Z,103132.06
2023-02-27T04:13:06.847Z,103147.13
2023-02-27T04:23:38.417Z,103153.00
2023-02-27T04:34:04.862Z,103173.94
2023-02-27T04:44:26.959Z,103169.47
2023-02-27T04:54:54.541Z,103174.38
2023-02-27T05:05:19.028Z,103186.53
2023-02-27T05:15:43.948Z,103182.38
2023-02-27T05:26:11.461Z,103193.59
2023-02-27T05:37:02.151Z,103202.06
2023-02-27T05:47:26.936Z,103205.38
2023-02-27T05:57:54.614Z,103202.53
2023-02-27T06:08:16.110Z,103207.47
2023-02-27T06:18:37.726Z,103220.84
2023-02-27T06:28:59.913Z,103202.09
2023-02-27T06:39:21.281Z,103218.97
2023-02-27T06:49:42.659Z,103233.97
2023-02-27T07:00:04.846Z,103258.88
2023-02-27T07:10:26.601Z,103254.53
2023-02-27T07:20:49.891Z,103272.50
2023-02-27T07:31:11.270Z,103264.13
2023-02-27T07:41:32.714Z,103272.66
2023-02-27T07:51:54.111Z,103261.41
2023-02-27T08:02:15.624Z,103275.19
2023-02-27T08:12:37.106Z,103264.34
2023-02-27T08:22:58.493Z,103276.78
2023-02-27T08:33:19.911Z,103276.50
2023-02-27T08:43:41.286Z,103286.47
2023-02-27T08:54:03.552Z,103268.28
2023-02-27T09:04:24.984Z,103267.38
2023-02-27T09:14:46.391Z,103267.84
2023-02-27T09:25:07.922Z,103274.50
2023-02-27T09:35:29.303Z,103279.44
2023-02-27T09:45:54.375Z,103288.69
2023-02-27T09:56:35.541Z,103284.91
2023-02-27T10:07:11.945Z,103281.28
2023-02-27T10:17:39.550Z,103281.22
2023-02-27T10:28:09.096Z,103300.56
2023-02-27T10:38:37.303Z,103308.75
2023-02-27T10:49:00.292Z,103321.25
2023-02-27T10:59:38.507Z,103319.91
2023-02-27T11:10:20.255Z,103316.66
2023-02-27T11:20:43.533Z,103316.28
2023-02-27T11:31:25.478Z,103302.72
2023-02-27T11:41:46.970Z,103303.16
2023-02-27T11:52:23.924Z,103303.19
2023-02-27T12:02:55.355Z,103305.84
2023-02-27T12:13:20.133Z,103270.59
2023-02-27T12:23:50.772Z,103264.59
2023-02-27T12:34:21.272Z,103268.50
2023-02-27T12:44:42.723Z,103255.31
2023-02-27T12:55:07.174Z,103246.19
2023-02-27T13:05:47.420Z,103237.00
2023-02-27T13:16:27.801Z,103226.22
2023-02-27T13:26:55.310Z,103228.28
2023-02-27T13:37:16.746Z,103230.97
2023-02-27T13:47:47.460Z,103230.16
2023-02-27T13:58:15.612Z,103224.34
2023-02-27T14:08:46.538Z,103205.50
2023-02-27T14:19:22.329Z,103219.97
2023-02-27T14:29:45.434Z,103235.44
2023-02-27T14:40:07.147Z,103234.63
2023-02-27T14:50:28.574Z,103240.41
2023-02-27T15:01:03.372Z,103238.97
2023-02-27T15:11:25.053Z,103237.84
2023-02-27T15:21:49.837Z,103226.81
2023-02-27T15:32:25.027Z,103230.28
2023-02-27T15:42:47.037Z,103227.53
2023-02-27T15:53:08.429Z,103251.41
2023-02-27T16:03:33.056Z,103271.28
2023-02-27T16:13:55.447Z,103267.69
2023-02-27T16:24:29.851Z,103269.31
2023-02-27T16:34:51.548Z,103265.84
2023-02-27T16:45:20.560Z,103280.19
2023-02-27T16:55:43.474Z,103277.41
2023-02-27T17:06:05.093Z,103282.44
2023-02-27T17:16:26.768Z,103284.09
2023-02-27T17:26:48.716Z,103290.69
2023-02-27T17:37:10.755Z,103276.81
2023-02-27T17:47:32.782Z,103291.03
2023-02-27T17:57:54.178Z,103271.09
2023-02-27T18:08:15.521Z,103289.00
2023-02-27T18:18:37.733Z,103289.16
2023-02-27T18:29:00.610Z,103279.66
2023-02-27T18:39:22.860Z,103289.63
2023-02-27T18:49:44.470Z,103290.72
2023-02-27T19:00:06.558Z,103307.91
2023-02-27T19:10:27.916Z,103295.78
2023-02-27T19:20:49.276Z,103306.13
2023-02-27T19:31:12.723Z,103310.47
2023-02-27T19:41:34.157Z,103310.59
2023-02-27T19:51:55.640Z,103308.91
2023-02-27T20:02:17.029Z,103314.94
2023-02-27T20:12:38.570Z,103314.06
2023-02-27T20:23:00.129Z,103328.59
2023-02-27T20:33:21.482Z,103326.78
2023-02-27T20:43:43.550Z,103320.75
2023-02-27T20:54:06.582Z,103330.00
2023-02-27T21:04:47.194Z,103324.84
2023-02-27T21:15:08.934Z,103337.66
2023-02-27T21:25:30.352Z,103352.19
2023-02-27T21:35:51.789Z,103350.38
2023-02-27T21:46:13.536Z,103350.25
2023-02-27T21:56:34.914Z,103339.91
2023-02-27T22:06:56.249Z,103346.75
2023-02-27T22:17:17.672Z,103339.97
2023-02-27T22:27:39.016Z,103343.38
2023-02-27T22:38:00.385Z,103347.56
2023-02-27T22:48:23.613Z,103339.91
2023-02-27T22:58:45.234Z,103340.00
2023-02-27T23:09:08.234Z,103331.56
2023-02-27T23:19:30.001Z,103337.66
2023-02-27T23:29:51.327Z,103331.91
2023-02-27T23:40:13.023Z,103335.31
2023-02-27T23:50:36.383Z,103329.19
